Time;durP1;ratioP1;P1;durP2;ratioP2;P2;SDS_P1;SDS_P2;PMS_P1;PMS_P2;Temp;Humidity;BMP_temperature;BMP_pressure;BME280_temperature;BME280_humidity;BME280_pressure;Samples;Min_cycle;Max_cycle;Signal;HPM_P1;HPM_P2
2022/05/31 00:01:47;;;;;;;7.63;5.55;;;;;;;9.93;70.65;101304.94;5032650;28;20065;-80
2022/05/31 00:04:12;;;;;;;8.18;5.20;;;;;;;9.95;70.06;101304.84;5027200;28;20063;-80
2022/05/31 00:06:38;;;;;;;6.80;5.80;;;;;;;9.92;70.55;101291.75;5036316;28;20026;-81
2022/05/31 00:09:04;;;;;;;6.90;5.45;;;;;;;9.89;70.43;101295.50;5047929;27;20093;-81
2022/05/31 00:11:29;;;;;;;8.75;5.68;;;;;;;9.86;69.52;101292.16;5035713;28;20033;-81
2022/05/31 00:13:54;;;;;;;9.80;5.77;;;;;;;9.83;69.13;101287.94;5036785;28;20036;-80
2022/05/31 00:16:20;;;;;;;7.40;5.22;;;;;;;9.81;69.40;101293.34;5036673;28;20269;-81
2022/05/31 00:18:45;;;;;;;9.13;5.63;;;;;;;9.79;69.22;101297.91;5036737;28;20025;-80
2022/05/31 00:21:10;;;;;;;7.18;5.90;;;;;;;9.74;69.67;101297.34;5041584;27;20022;-81
2022/05/31 00:23:39;;;;;;;10.87;5.43;;;;;;;9.69;69.48;101282.66;5036771;28;20045;-80
2022/05/31 00:26:04;;;;;;;11.93;5.55;;;;;;;9.69;69.94;101288.84;5044344;27;20302;-80
2022/05/31 00:28:30;;;;;;;5.82;5.05;;;;;;;9.69;69.41;101293.28;5036504;28;20102;-80
2022/05/31 00:30:56;;;;;;;7.95;5.80;;;;;;;9.65;69.29;101297.94;5036294;28;20022;-81
2022/05/31 00:33:21;;;;;;;6.90;5.45;;;;;;;9.64;70.04;101293.56;5041392;27;20025;-80
2022/05/31 00:35:51;;;;;;;11.93;5.65;;;;;;;9.60;70.00;101294.75;5028334;27;20034;-81
2022/05/31 00:38:17;;;;;;;9.10;5.70;;;;;;;9.58;70.78;101294.84;5035713;28;20025;-80
2022/05/31 00:40:42;;;;;;;7.97;5.43;;;;;;;9.55;70.92;101284.44;5036393;28;20034;-80
2022/05/31 00:43:11;;;;;;;7.80;5.90;;;;;;;9.52;70.78;101292.59;5039382;27;20026;-79
2022/05/31 00:45:48;;;;;;;7.15;5.53;;;;;;;9.51;70.65;101293.56;5036512;28;20034;-79
2022/05/31 00:48:33;;;;;;;6.20;5.60;;;;;;;9.43;70.73;101291.38;5035659;28;20037;-80
2022/05/31 00:51:05;;;;;;;7.85;5.95;;;;;;;9.40;71.38;101294.22;5038007;28;20070;-80
2022/05/31 00:53:36;;;;;;;9.15;5.90;;;;;;;9.37;72.07;101299.72;5038007;28;20018;-81
2022/05/31 00:56:09;;;;;;;8.82;6.47;;;;;;;9.35;71.73;101293.69;5023436;28;20014;-80
2022/05/31 00:58:39;;;;;;;8.80;6.53;;;;;;;9.31;72.11;101300.13;5023850;28;20029;-82
2022/05/31 01:01:08;;;;;;;11.05;6.53;;;;;;;9.26;72.20;101307.53;5036230;28;20014;-81
2022/05/31 01:03:38;;;;;;;10.38;6.75;;;;;;;9.23;72.24;101292.66;5035904;28;20022;-81
2022/05/31 01:06:04;;;;;;;7.95;6.75;;;;;;;9.21;72.03;101291.91;5033761;27;20022;-81
2022/05/31 01:08:30;;;;;;;10.00;7.28;;;;;;;9.17;73.06;101293.03;5024540;28;20051;-81
2022/05/31 01:10:55;;;;;;;9.50;6.70;;;;;;;9.15;73.13;101292.31;5035986;28;20050;-81
2022/05/31 01:13:21;;;;;;;10.57;7.00;;;;;;;9.11;73.19;101285.50;5037088;28;20014;-81
2022/05/31 01:15:47;;;;;;;12.10;7.55;;;;;;;9.10;73.66;101285.59;5035219;28;20025;-81
2022/05/31 01:18:14;;;;;;;8.68;7.03;;;;;;;9.08;73.72;101291.00;5035050;28;20038;-80
2022/05/31 01:20:40;;;;;;;8.98;6.97;;;;;;;9.09;72.71;101290.03;5039793;27;20030;-81
2022/05/31 01:23:16;;;;;;;12.38;7.63;;;;;;;9.02;73.75;101286.06;5028263;28;20082;-81
2022/05/31 01:26:29;;;;;;;9.52;7.05;;;;;;;9.08;72.50;101285.69;5030897;28;20053;-81
2022/05/31 01:29:03;;;;;;;9.98;7.30;;;;;;;9.01;73.25;101284.34;5026862;28;20038;-81
2022/05/31 01:31:33;;;;;;;11.27;7.60;;;;;;;8.97;73.95;101278.41;5022743;28;20034;-81
2022/05/31 01:34:18;;;;;;;10.23;7.78;;;;;;;8.94;73.55;101278.59;5047924;27;20038;-80
2022/05/31 01:36:52;;;;;;;9.45;8.13;;;;;;;8.87;73.86;101275.47;5035591;28;20123;-81
2022/05/31 01:39:23;;;;;;;11.35;7.05;;;;;;;8.84;74.05;101278.34;5032978;28;20065;-81
2022/05/31 01:41:57;;;;;;;9.15;8.05;;;;;;;8.85;74.50;101281.84;5035209;28;20018;-81
2022/05/31 01:44:27;;;;;;;10.45;7.35;;;;;;;8.78;74.62;101281.38;5035664;28;20022;-81
2022/05/31 01:46:56;;;;;;;8.98;7.22;;;;;;;8.78;73.93;101281.38;5028024;28;20049;-81
2022/05/31 01:49:22;;;;;;;10.07;7.43;;;;;;;8.76;74.32;101275.31;5035498;28;20073;-81
2022/05/31 01:51:49;;;;;;;9.88;7.47;;;;;;;8.74;74.25;101279.84;5034967;28;20030;-81
2022/05/31 01:54:17;;;;;;;10.70;8.27;;;;;;;8.69;74.86;101277.50;5035270;28;20050;-81
2022/05/31 01:56:46;;;;;;;11.02;8.07;;;;;;;8.68;75.00;101288.19;5033863;28;20038;-81
2022/05/31 01:59:11;;;;;;;9.43;7.50;;;;;;;8.68;74.86;101277.59;5035210;28;20044;-81
2022/05/31 02:01:39;;;;;;;8.80;7.35;;;;;;;8.67;74.81;101289.13;5021629;28;20027;-81
2022/05/31 02:04:05;;;;;;;8.98;7.90;;;;;;;8.64;74.93;101279.59;5015542;28;20022;-81
2022/05/31 02:06:37;;;;;;;9.43;7.65;;;;;;;8.63;75.50;101280.50;5031671;28;20026;-81
2022/05/31 02:09:04;;;;;;;7.90;7.13;;;;;;;8.64;75.37;101278.72;5034377;28;20026;-81
2022/05/31 02:11:30;;;;;;;9.45;7.03;;;;;;;8.65;75.10;101275.13;5035173;28;20029;-81
2022/05/31 02:13:56;;;;;;;10.18;7.60;;;;;;;8.65;75.63;101269.84;5035038;27;20053;-81
2022/05/31 02:16:22;;;;;;;9.00;7.43;;;;;;;8.66;75.91;101269.75;5035176;28;20022;-81
2022/05/31 02:21:37;;;;;;;8.48;6.60;;;;;;;8.66;75.75;101266.22;5035131;28;20025;-81
2022/05/31 02:24:05;;;;;;;9.82;6.88;;;;;;;8.69;75.37;101272.22;5035001;28;20056;-79
2022/05/31 02:26:34;;;;;;;9.20;6.57;;;;;;;8.71;75.70;101269.47;5035178;28;20229;-80
2022/05/31 02:28:59;;;;;;;7.53;6.63;;;;;;;8.73;74.20;101267.56;5036969;28;20030;-80
2022/05/31 02:31:26;;;;;;;10.23;6.75;;;;;;;8.73;74.39;101267.56;5047305;27;20017;-80
2022/05/31 02:33:51;;;;;;;7.30;6.35;;;;;;;8.75;74.42;101265.66;5037652;28;20017;-80
2022/05/31 02:36:16;;;;;;;10.98;6.88;;;;;;;8.76;75.02;101258.56;5038327;28;20018;-81
2022/05/31 02:38:41;;;;;;;10.23;6.80;;;;;;;8.77;74.95;101255.81;5037929;28;20074;-80
2022/05/31 02:41:07;;;;;;;9.20;6.15;;;;;;;8.80;74.72;101252.13;5038259;27;20089;-80
2022/05/31 02:43:32;;;;;;;9.70;6.70;;;;;;;8.80;75.74;101252.13;5038424;28;20029;-80
2022/05/31 02:46:00;;;;;;;13.57;7.10;;;;;;;8.83;75.18;101255.44;5037999;28;20042;-80
2022/05/31 02:48:26;;;;;;;8.13;6.30;;;;;;;8.82;74.85;101250.25;5040125;27;20043;-81
2022/05/31 02:50:51;;;;;;;7.00;6.25;;;;;;;8.84;74.94;101254.50;5046149;27;20014;-81
2022/05/31 02:53:17;;;;;;;11.35;6.85;;;;;;;8.86;75.05;101251.75;5033517;28;20026;-81
2022/05/31 02:55:42;;;;;;;12.07;6.78;;;;;;;8.88;74.86;101257.81;5038028;28;20075;-81
2022/05/31 02:58:07;;;;;;;8.30;6.27;;;;;;;8.90;75.40;101250.59;5047402;27;20014;-81
2022/05/31 03:00:33;;;;;;;9.45;6.38;;;;;;;8.91;75.67;101254.09;5037362;28;20382;-81
2022/05/31 03:02:58;;;;;;;10.82;6.57;;;;;;;8.89;75.40;101249.78;5037888;28;20045;-81
2022/05/31 03:05:23;;;;;;;9.52;6.47;;;;;;;8.92;74.93;101248.72;5037162;28;20033;-81
2022/05/31 03:07:48;;;;;;;7.85;6.72;;;;;;;8.94;74.75;101254.75;5037411;28;20010;-81
2022/05/31 03:10:14;;;;;;;7.82;6.15;;;;;;;8.91;75.06;101252.31;5049226;27;20056;-81
2022/05/31 03:12:39;;;;;;;8.10;6.60;;;;;;;8.93;75.13;101250.41;5037297;28;20045;-80
2022/05/31 03:15:10;;;;;;;7.63;6.90;;;;;;;8.91;75.21;101248.81;5037106;28;20045;-81
2022/05/31 03:17:38;;;;;;;10.38;7.00;;;;;;;8.93;74.98;101252.22;5036810;28;20025;-81
2022/05/31 03:20:10;;;;;;;8.90;6.72;;;;;;;8.91;75.91;101247.03;5037995;28;20021;-81
2022/05/31 03:22:44;;;;;;;7.82;6.97;;;;;;;8.92;75.91;101243.41;5037601;28;20020;-81
2022/05/31 03:25:21;;;;;;;7.68;6.57;;;;;;;8.94;75.44;101238.00;5025879;28;20488;-81
2022/05/31 03:27:47;;;;;;;7.38;6.50;;;;;;;8.96;76.42;101236.13;5037583;28;20074;-80
2022/05/31 03:30:13;;;;;;;9.63;6.60;;;;;;;8.96;76.63;101238.75;5037390;28;20041;-81
2022/05/31 03:32:40;;;;;;;9.32;6.60;;;;;;;8.94;76.94;101238.00;5038782;28;20020;-81
2022/05/31 03:35:07;;;;;;;12.02;6.97;;;;;;;8.92;76.63;101240.75;5036694;28;20055;-80
2022/05/31 03:37:32;;;;;;;12.75;7.28;;;;;;;8.95;76.16;101234.44;5036800;28;20025;-81
2022/05/31 03:39:58;;;;;;;9.57;6.95;;;;;;;8.97;76.96;101233.38;5036576;28;20038;-81
2022/05/31 03:42:23;;;;;;;8.70;6.78;;;;;;;8.97;76.92;101236.03;5037449;28;20051;-81
2022/05/31 03:44:52;;;;;;;8.70;6.90;;;;;;;9.01;76.67;101237.53;5037293;28;20100;-80
2022/05/31 03:47:17;;;;;;;10.15;7.07;;;;;;;9.01;77.16;101240.19;5036417;27;20017;-81
2022/05/31 03:49:42;;;;;;;8.85;7.10;;;;;;;9.00;77.08;101232.34;5040706;27;20081;-81
2022/05/31 03:52:08;;;;;;;11.60;7.05;;;;;;;8.99;76.68;101239.44;5037024;28;20025;-81
2022/05/31 03:54:36;;;;;;;8.70;7.25;;;;;;;9.02;76.41;101241.88;5023058;28;20018;-81
2022/05/31 03:57:06;;;;;;;9.30;7.68;;;;;;;9.02;77.11;101241.03;5037215;28;20038;-80
2022/05/31 03:59:38;;;;;;;14.10;7.32;;;;;;;9.05;76.62;101235.53;5036921;28;20050;-80
2022/05/31 04:02:04;;;;;;;10.23;7.30;;;;;;;9.02;76.95;101233.91;5023321;28;20059;-80
2022/05/31 04:04:30;;;;;;;11.88;7.00;;;;;;;9.05;76.52;101240.84;5039503;27;20026;-80
2022/05/31 04:06:55;;;;;;;9.90;7.05;;;;;;;9.05;77.47;101232.88;5037084;28;20013;-81
2022/05/31 04:09:20;;;;;;;10.95;6.82;;;;;;;9.06;76.40;101226.66;5039165;28;20036;-80
2022/05/31 04:11:45;;;;;;;7.82;6.80;;;;;;;9.10;76.83;101235.25;5036837;28;20026;-80
2022/05/31 04:14:11;;;;;;;10.63;6.72;;;;;;;9.10;76.67;101227.31;5033110;28;20018;-80
2022/05/31 04:16:36;;;;;;;9.53;6.67;;;;;;;9.12;77.02;101228.88;5036898;28;20063;-80
2022/05/31 04:19:02;;;;;;;11.45;6.68;;;;;;;9.12;77.14;101225.41;5036921;28;20280;-80
2022/05/31 04:21:27;;;;;;;12.40;7.82;;;;;;;9.15;76.84;101228.69;5039142;27;20030;-80
2022/05/31 04:23:59;;;;;;;12.93;7.28;;;;;;;9.15;76.87;101228.69;5038492;27;20021;-80
2022/05/31 04:26:26;;;;;;;8.40;6.90;;;;;;;9.16;77.17;101230.41;5036893;28;20050;-80
2022/05/31 04:28:51;;;;;;;12.40;7.35;;;;;;;9.21;75.95;101224.81;5042082;27;20029;-81
2022/05/31 04:31:16;;;;;;;11.35;7.53;;;;;;;9.23;75.84;101229.06;5036577;28;20018;-81
2022/05/31 04:33:42;;;;;;;9.95;6.93;;;;;;;9.24;75.47;101228.13;5036585;28;20014;-81
2022/05/31 04:36:18;;;;;;;11.57;7.18;;;;;;;9.26;76.07;101228.84;5036153;28;20078;-82
2022/05/31 04:38:43;;;;;;;12.60;7.32;;;;;;;9.28;75.37;101228.75;5036278;28;20038;-81
2022/05/31 04:41:16;;;;;;;8.82;6.88;;;;;;;9.31;75.70;101219.75;5022637;28;20018;-80
2022/05/31 04:43:41;;;;;;;10.10;7.15;;;;;;;9.32;75.47;101226.75;5036062;28;20021;-81
2022/05/31 04:46:17;;;;;;;9.55;6.45;;;;;;;9.33;75.31;101229.31;5035936;28;20018;-81
2022/05/31 04:48:42;;;;;;;7.32;6.60;;;;;;;9.36;75.73;101222.94;5024009;28;20034;-81
2022/05/31 04:51:08;;;;;;;8.80;6.80;;;;;;;9.38;74.78;101226.38;5035286;28;20083;-81
2022/05/31 04:53:33;;;;;;;9.38;7.00;;;;;;;9.39;74.97;101213.00;5045375;27;20101;-82
2022/05/31 04:56:04;;;;;;;10.05;7.50;;;;;;;9.41;75.46;101219.06;5024526;28;20021;-81
2022/05/31 04:58:29;;;;;;;11.13;7.13;;;;;;;9.46;75.08;101224.06;5034291;28;20077;-82
2022/05/31 05:00:55;;;;;;;12.10;7.32;;;;;;;9.49;74.87;101225.66;5036354;28;20033;-79
2022/05/31 05:03:20;;;;;;;9.30;7.63;;;;;;;9.52;74.59;101220.16;5036150;28;20075;-80
2022/05/31 05:05:46;;;;;;;11.65;7.53;;;;;;;9.53;74.65;101212.09;5043447;27;20107;-81
2022/05/31 05:08:11;;;;;;;12.17;7.57;;;;;;;9.59;74.05;101210.81;5041463;27;20026;-81
2022/05/31 05:10:36;;;;;;;12.00;8.35;;;;;;;9.61;74.62;101216.91;5035813;28;20356;-80
2022/05/31 05:13:02;;;;;;;10.82;7.65;;;;;;;9.63;74.03;101214.97;5036107;28;20038;-82
2022/05/31 05:15:27;;;;;;;14.88;7.65;;;;;;;9.68;74.24;101220.00;5043602;27;20030;-81
2022/05/31 05:17:52;;;;;;;9.10;7.80;;;;;;;9.69;73.88;101214.59;5036037;28;20022;-80
2022/05/31 05:20:22;;;;;;;10.77;7.87;;;;;;;9.71;73.88;101217.97;5035453;28;20051;-81
2022/05/31 05:22:47;;;;;;;10.48;7.53;;;;;;;9.73;73.45;101213.41;5035610;28;20288;-80
2022/05/31 05:25:13;;;;;;;10.73;7.87;;;;;;;9.78;73.81;101211.28;5035854;28;20026;-80
2022/05/31 05:27:38;;;;;;;14.60;8.63;;;;;;;9.80;73.58;101204.06;5043930;27;20323;-80
2022/05/31 05:32:47;;;;;;;10.90;7.90;;;;;;;9.89;74.32;101213.25;5035704;28;20324;-81
2022/05/31 05:35:13;;;;;;;13.48;8.43;;;;;;;9.92;73.31;101215.66;5034972;28;20038;-79
2022/05/31 05:37:38;;;;;;;13.65;7.68;;;;;;;9.96;73.09;101219.81;5018445;28;20073;-79
2022/05/31 05:40:05;;;;;;;11.98;8.93;;;;;;;10.00;73.11;101215.16;5033966;28;20051;-80
2022/05/31 05:42:30;;;;;;;18.60;8.95;;;;;;;10.04;73.01;101216.63;5035074;28;20014;-80
2022/05/31 05:44:55;;;;;;;13.63;9.07;;;;;;;10.07;72.99;101219.06;5035061;28;20034;-81
2022/05/31 05:47:21;;;;;;;16.67;8.48;;;;;;;10.13;73.01;101212.50;5033959;28;20315;-81
2022/05/31 05:49:46;;;;;;;14.93;8.50;;;;;;;10.18;73.48;101216.53;5032160;28;20037;-81
2022/05/31 05:52:16;;;;;;;17.67;8.37;;;;;;;10.26;73.19;101216.00;5025453;28;20393;-81
2022/05/31 05:54:41;;;;;;;12.02;8.45;;;;;;;10.32;73.59;101217.41;5035030;28;20257;-81
2022/05/31 05:57:06;;;;;;;15.80;8.90;;;;;;;10.40;73.10;101214.25;5032851;28;20030;-80
2022/05/31 05:59:31;;;;;;;16.30;8.93;;;;;;;10.44;72.72;101216.56;5034873;28;20077;-81
2022/05/31 06:02:02;;;;;;;17.23;9.27;;;;;;;10.47;72.56;101219.00;5036494;28;20010;-81
2022/05/31 06:04:53;;;;;;;10.90;9.27;;;;;;;10.52;72.21;101211.56;5039096;28;20029;-82
2022/05/31 06:07:26;;;;;;;13.95;8.85;;;;;;;10.54;72.28;101212.31;5035472;28;20034;-82
2022/05/31 06:09:56;;;;;;;13.50;8.55;;;;;;;10.60;72.37;101208.34;5089451;28;20037;-82
2022/05/31 06:12:27;;;;;;;13.75;9.43;;;;;;;10.68;72.52;101210.47;5076217;28;20049;-82
2022/05/31 06:14:58;;;;;;;15.90;9.35;;;;;;;10.82;72.12;101212.97;5027321;28;20030;-82
2022/05/31 06:17:33;;;;;;;11.38;9.30;;;;;;;10.90;71.95;101207.97;5032204;28;20033;-83
2022/05/31 06:20:01;;;;;;;13.20;9.32;;;;;;;11.06;71.46;101201.56;5053775;28;20014;-80
2022/05/31 06:22:34;;;;;;;11.82;9.38;;;;;;;11.21;71.06;101202.25;5062151;28;20038;-81
2022/05/31 06:25:00;;;;;;;14.43;9.23;;;;;;;11.45;71.15;101205.72;5028867;28;20023;-80
2022/05/31 06:27:25;;;;;;;13.10;9.60;;;;;;;11.72;70.42;101209.09;5031454;28;20038;-79
2022/05/31 06:29:50;;;;;;;16.05;9.35;;;;;;;11.99;69.65;101207.03;5044105;27;20046;-79
2022/05/31 06:32:16;;;;;;;11.60;9.20;;;;;;;12.17;67.89;101209.22;5024648;28;20041;-81
2022/05/31 06:34:42;;;;;;;11.88;8.77;;;;;;;12.44;68.04;101216.03;5025295;28;20033;-81
2022/05/31 06:37:11;;;;;;;11.93;8.90;;;;;;;12.65;67.03;101208.16;5027636;28;20042;-81
2022/05/31 06:39:38;;;;;;;11.63;9.02;;;;;;;12.82;66.97;101212.97;5020148;28;20069;-82
2022/05/31 06:42:05;;;;;;;11.57;9.18;;;;;;;13.06;65.61;101215.50;5031228;28;20136;-81
2022/05/31 06:44:34;;;;;;;14.95;9.30;;;;;;;13.29;66.18;101210.13;5025506;28;20018;-82
2022/05/31 06:47:00;;;;;;;12.35;8.80;;;;;;;13.56;64.44;101208.84;5025670;28;20014;-79
2022/05/31 06:49:26;;;;;;;11.52;9.00;;;;;;;13.74;64.33;101209.97;5024551;28;20010;-82
2022/05/31 06:57:19;;;;;;;11.68;8.77;;;;;;;14.00;60.21;101213.06;5019043;28;20759;-82
2022/05/31 06:59:44;;;;;;;12.07;8.10;;;;;;;14.17;59.59;101214.31;5018706;28;20034;-82
2022/05/31 07:02:10;;;;;;;9.43;7.95;;;;;;;14.40;59.33;101209.63;5024578;28;20025;-82
2022/05/31 07:04:36;;;;;;;7.65;6.80;;;;;;;14.61;55.61;101212.28;5029057;28;20026;-82
2022/05/31 07:07:01;;;;;;;10.68;7.13;;;;;;;14.84;55.64;101211.22;5033563;28;20018;-82
2022/05/31 07:09:26;;;;;;;7.60;6.80;;;;;;;15.03;54.09;101205.94;5020299;28;20060;-81
2022/05/31 07:11:56;;;;;;;10.23;7.53;;;;;;;15.28;54.21;101196.53;5036632;28;20348;-81
2022/05/31 07:14:21;;;;;;;10.63;6.88;;;;;;;15.70;54.01;101204.31;5020562;28;20057;-82
2022/05/31 07:16:46;;;;;;;12.50;7.00;;;;;;;15.95;52.79;101210.06;5029980;27;20014;-82
2022/05/31 07:19:12;;;;;;;11.43;6.60;;;;;;;16.33;52.28;101204.75;5034143;28;20045;-78
2022/05/31 07:21:37;;;;;;;12.52;6.53;;;;;;;16.68;50.90;101195.97;5032642;28;20307;-80
2022/05/31 07:24:02;;;;;;;9.52;6.00;;;;;;;16.96;50.01;101196.84;5030637;28;20019;-81
2022/05/31 07:26:28;;;;;;;9.90;6.07;;;;;;;17.03;49.28;101189.03;5030375;28;20097;-81
2022/05/31 07:28:55;;;;;;;10.73;6.20;;;;;;;17.06;49.30;101191.44;5028438;28;20072;-80
2022/05/31 07:31:20;;;;;;;8.07;5.93;;;;;;;17.17;51.74;101190.38;5023773;28;20014;-79
2022/05/31 07:33:45;;;;;;;10.93;5.50;;;;;;;17.31;49.08;101189.81;5018563;28;20368;-81
2022/05/31 07:36:11;;;;;;;7.78;5.05;;;;;;;17.39;47.57;101189.06;5032410;28;20293;-81
2022/05/31 07:38:36;;;;;;;6.25;4.70;;;;;;;17.52;47.63;101194.03;5023784;28;20056;-80
2022/05/31 07:41:02;;;;;;;6.82;4.38;;;;;;;17.61;46.70;101193.13;5030585;28;20049;-81
2022/05/31 07:43:27;;;;;;;7.45;4.53;;;;;;;17.82;45.76;101192.78;5025716;28;20026;-80
2022/05/31 07:46:10;;;;;;;6.57;4.53;;;;;;;18.10;47.93;101185.44;5021035;28;20038;-82
2022/05/31 07:48:37;;;;;;;6.50;4.55;;;;;;;18.25;45.19;101185.72;5021999;28;20113;-81
2022/05/31 07:51:03;;;;;;;5.75;4.70;;;;;;;18.37;44.96;101183.59;5018028;28;20034;-80
2022/05/31 07:53:29;;;;;;;6.43;4.72;;;;;;;18.64;44.45;101184.38;5027053;28;20038;-82
2022/05/31 07:55:56;;;;;;;7.47;4.60;;;;;;;18.83;44.77;101185.97;5020408;28;20034;-82
2022/05/31 07:58:30;;;;;;;8.02;4.40;;;;;;;18.98;44.38;101180.81;5023815;28;20072;-81
2022/05/31 08:00:56;;;;;;;7.75;4.28;;;;;;;19.19;44.55;101177.66;5027120;28;20010;-82
2022/05/31 08:03:21;;;;;;;7.10;4.40;;;;;;;19.22;43.63;101174.63;5021818;28;20020;-82
2022/05/31 08:05:46;;;;;;;6.70;4.38;;;;;;;19.31;42.97;101180.88;5029051;28;20024;-82
2022/05/31 08:08:11;;;;;;;5.83;3.73;;;;;;;19.41;43.70;101168.06;5033920;28;20394;-82
2022/05/31 08:10:37;;;;;;;5.45;3.92;;;;;;;19.36;41.12;101170.44;5017205;28;20389;-80
2022/05/31 08:13:03;;;;;;;4.63;3.53;;;;;;;19.56;41.93;101179.03;5022563;28;20083;-80
2022/05/31 08:15:28;;;;;;;5.63;3.83;;;;;;;19.75;40.73;101164.38;5027102;28;20038;-81
2022/05/31 08:17:53;;;;;;;6.43;4.27;;;;;;;19.85;40.49;101161.50;5021290;28;20074;-82
2022/05/31 08:20:22;;;;;;;8.40;4.13;;;;;;;20.14;40.37;101155.56;5022681;28;20296;-82
2022/05/31 08:22:48;;;;;;;6.03;4.60;;;;;;;20.54;41.47;101169.09;5028181;28;20022;-81
2022/05/31 08:25:14;;;;;;;7.18;4.25;;;;;;;20.87;40.05;101164.41;5031679;28;20102;-82
2022/05/31 08:27:40;;;;;;;6.55;3.72;;;;;;;21.21;39.41;101165.84;5030090;27;20030;-83
2022/05/31 08:30:07;;;;;;;7.88;3.97;;;;;;;21.58;38.23;101162.41;5020206;28;20025;-81
2022/05/31 08:32:34;;;;;;;5.28;4.38;;;;;;;21.57;40.13;101158.00;5028835;27;20050;-83
2022/05/31 08:34:59;;;;;;;5.78;4.35;;;;;;;21.89;38.27;101161.41;5029655;28;20038;-82
2022/05/31 08:37:25;;;;;;;9.88;4.45;;;;;;;22.15;38.08;101162.84;5028782;28;20050;-80
2022/05/31 08:39:50;;;;;;;7.63;4.82;;;;;;;22.30;38.45;101161.00;5033469;28;20030;-80
2022/05/31 08:42:24;;;;;;;9.05;4.75;;;;;;;22.70;37.66;101155.28;5028705;28;20022;-80
2022/05/31 08:45:19;;;;;;;6.95;4.10;;;;;;;23.05;39.17;101161.69;5017228;28;20017;-80
2022/05/31 08:47:46;;;;;;;6.05;4.22;;;;;;;22.80;36.12;101144.97;5001308;28;20368;-81
2022/05/31 08:53:26;;;;;;;10.15;4.68;;;;;;;23.11;36.69;101156.56;5014968;28;20102;-81
2022/05/31 08:59:04;;;;;;;6.57;4.78;;;;;;;23.04;35.75;101149.19;5005838;28;20555;-81
2022/05/31 09:01:38;;;;;;;6.22;3.90;;;;;;;23.18;36.04;101149.34;5012333;28;20072;-81
2022/05/31 09:04:19;;;;;;;6.95;4.20;;;;;;;23.33;36.29;101152.84;5014766;28;20029;-81
2022/05/31 09:06:56;;;;;;;8.85;3.90;;;;;;;23.39;34.07;101154.75;5012653;28;20034;-81
2022/05/31 09:09:28;;;;;;;7.43;4.32;;;;;;;23.53;34.50;101153.03;5010343;28;20094;-81
2022/05/31 09:12:09;;;;;;;5.72;4.53;;;;;;;23.22;34.87;101153.34;5028304;28;20053;-81
2022/05/31 09:14:53;;;;;;;8.32;4.00;;;;;;;23.34;34.04;101156.38;5026365;28;20026;-81
2022/05/31 09:17:27;;;;;;;5.75;4.70;;;;;;;23.51;34.51;101157.78;5020187;28;20037;-82
2022/05/31 09:20:02;;;;;;;6.82;4.40;;;;;;;23.79;34.65;101152.38;5026105;28;20093;-80
2022/05/31 09:22:28;;;;;;;6.38;4.10;;;;;;;24.01;32.75;101150.47;5011324;28;20447;-81
2022/05/31 09:24:53;;;;;;;6.32;4.38;;;;;;;24.09;33.00;101160.31;5038600;28;20064;-81
2022/05/31 09:27:24;;;;;;;5.95;4.72;;;;;;;24.29;34.34;101146.03;5031277;28;20030;-81
2022/05/31 09:30:04;;;;;;;7.28;4.50;;;;;;;24.40;33.90;101145.47;5037318;28;20034;-80
2022/05/31 09:33:10;;;;;;;5.53;4.40;;;;;;;24.78;34.55;101147.75;5029179;28;20018;-81
2022/05/31 09:35:59;;;;;;;7.13;4.35;;;;;;;24.85;33.39;101145.88;5030788;28;20014;-80
2022/05/31 09:38:24;;;;;;;5.38;3.80;;;;;;;24.67;32.68;101142.88;5026014;28;20046;-80
2022/05/31 09:40:51;;;;;;;7.67;4.53;;;;;;;24.52;31.98;101148.44;5024917;28;20486;-80
2022/05/31 09:43:41;;;;;;;6.95;4.50;;;;;;;24.27;33.22;101145.41;5016377;28;20028;-80
2022/05/31 09:46:25;;;;;;;8.10;4.28;;;;;;;24.33;32.79;101140.00;5033666;28;20018;-80
2022/05/31 09:48:52;;;;;;;6.40;4.47;;;;;;;24.43;31.12;101134.22;5025219;28;20041;-80
2022/05/31 09:51:39;;;;;;;6.90;4.90;;;;;;;24.55;32.16;101132.59;5034596;28;20041;-80
2022/05/31 09:57:08;;;;;;;6.07;4.40;;;;;;;23.89;33.05;101133.06;5034737;28;20043;-80
2022/05/31 10:00:11;;;;;;;5.25;4.22;;;;;;;23.96;34.24;101133.09;5035132;27;20064;-80
2022/05/31 10:02:37;;;;;;;6.38;4.18;;;;;;;23.93;32.50;101137.06;5035781;28;20064;-80
2022/05/31 10:05:21;;;;;;;6.35;4.32;;;;;;;24.11;33.25;101133.81;5033605;28;20030;-81
2022/05/31 10:07:48;;;;;;;5.90;3.78;;;;;;;24.01;33.21;101136.06;5034970;27;20014;-81
2022/05/31 10:10:30;;;;;;;6.30;4.78;;;;;;;23.83;32.94;101132.00;5030940;28;20026;-82
2022/05/31 10:13:01;;;;;;;6.18;4.50;;;;;;;23.55;33.96;101126.53;5034061;28;20094;-79
2022/05/31 10:15:50;;;;;;;5.75;4.43;;;;;;;23.54;34.59;101130.28;5035173;28;20014;-80
2022/05/31 10:18:31;;;;;;;7.80;4.47;;;;;;;23.26;34.81;101116.69;5026875;28;20010;-80
2022/05/31 10:21:01;;;;;;;5.15;4.43;;;;;;;22.96;33.23;101118.66;5032190;27;20023;-80
2022/05/31 10:23:44;;;;;;;6.00;4.60;;;;;;;22.79;35.25;101127.03;5028890;28;20014;-81
2022/05/31 10:26:32;;;;;;;5.40;4.30;;;;;;;22.74;35.35;101126.78;5034631;28;20010;-80
2022/05/31 10:29:00;;;;;;;5.03;4.40;;;;;;;22.23;36.11;101137.56;5034418;28;20227;-80
2022/05/31 10:31:36;;;;;;;6.78;4.18;;;;;;;22.40;35.59;101139.06;5032716;27;20041;-78
2022/05/31 10:34:05;;;;;;;6.25;4.57;;;;;;;22.03;35.82;101131.88;5018756;28;20018;-80
2022/05/31 10:36:46;;;;;;;6.25;4.95;;;;;;;21.92;36.14;101123.19;5038357;27;20091;-80
2022/05/31 10:39:18;;;;;;;7.72;4.68;;;;;;;21.80;36.26;101130.91;5034064;28;20029;-80
2022/05/31 10:41:44;;;;;;;5.32;4.80;;;;;;;21.72;36.09;101130.16;5023907;28;20041;-81
2022/05/31 10:44:17;;;;;;;8.55;5.38;;;;;;;21.55;36.31;101126.75;5025441;28;20046;-82
2022/05/31 10:46:47;;;;;;;6.13;5.00;;;;;;;21.33;36.17;101126.56;5029437;28;20082;-82
2022/05/31 10:49:19;;;;;;;8.50;4.75;;;;;;;21.11;37.32;101125.56;5036940;28;20081;-80
2022/05/31 10:52:20;;;;;;;7.20;4.65;;;;;;;21.03;37.37;101122.94;5036896;28;20028;-81
2022/05/31 10:55:22;;;;;;;6.15;5.07;;;;;;;20.95;37.79;101123.84;5035589;28;20022;-81
2022/05/31 10:58:07;;;;;;;8.27;5.30;;;;;;;20.76;37.81;101133.22;5028880;28;20017;-81
2022/05/31 11:00:37;;;;;;;8.07;5.40;;;;;;;20.42;37.52;101136.25;5032382;28;20045;-81
2022/05/31 11:03:10;;;;;;;8.38;5.07;;;;;;;20.36;38.70;101128.84;5036203;28;20022;-80
2022/05/31 11:05:54;;;;;;;6.07;5.03;;;;;;;20.09;39.13;101129.09;5037162;27;20018;-81
2022/05/31 11:11:43;;;;;;;8.25;5.00;;;;;;;20.03;40.78;101134.34;5013176;28;20025;-80
2022/05/31 11:14:30;;;;;;;7.03;4.70;;;;;;;19.94;40.75;101136.22;5033543;28;20033;-80
2022/05/31 11:17:04;;;;;;;9.10;5.55;;;;;;;19.81;40.81;101128.66;5037740;28;20048;-80
2022/05/31 11:19:52;;;;;;;9.80;5.45;;;;;;;19.74;40.23;101139.25;5041050;27;20021;-80
2022/05/31 11:22:36;;;;;;;8.02;5.43;;;;;;;19.69;39.86;101138.09;5036875;28;20026;-80
2022/05/31 11:25:23;;;;;;;6.50;4.53;;;;;;;19.63;39.93;101134.22;5035801;28;20014;-81
2022/05/31 11:28:10;;;;;;;8.20;4.90;;;;;;;19.54;40.66;101136.09;5041495;27;20085;-81
2022/05/31 11:30:57;;;;;;;7.88;5.00;;;;;;;19.35;41.43;101142.66;5039383;27;20040;-81
2022/05/31 11:33:32;;;;;;;5.63;4.85;;;;;;;19.33;40.47;101139.28;5035291;28;20033;-81
2022/05/31 11:36:19;;;;;;;5.88;4.78;;;;;;;19.39;41.23;101135.91;5036881;28;20037;-81
2022/05/31 11:38:59;;;;;;;6.90;4.88;;;;;;;19.41;40.97;101136.59;5034141;28;20052;-81
2022/05/31 11:41:42;;;;;;;7.13;4.68;;;;;;;19.50;41.42;101133.88;5036700;28;20010;-81
2022/05/31 11:44:32;;;;;;;6.88;4.95;;;;;;;19.64;41.55;101138.59;5040469;27;20026;-82
2022/05/31 11:47:20;;;;;;;5.65;4.28;;;;;;;19.62;39.80;101145.16;5037052;28;20026;-80
2022/05/31 11:49:51;;;;;;;8.52;4.05;;;;;;;19.57;38.75;101140.31;5035168;28;20022;-82
2022/05/31 11:52:33;;;;;;;5.00;3.50;;;;;;;19.63;39.34;101144.16;5036880;28;20018;-82
2022/05/31 11:55:26;;;;;;;4.20;3.55;;;;;;;19.67;39.35;101135.56;5034621;28;20025;-81
2022/05/31 11:57:56;;;;;;;7.65;4.65;;;;;;;19.52;40.48;101142.66;5036558;28;20014;-81
2022/05/31 12:00:21;;;;;;;5.28;3.70;;;;;;;19.62;41.42;101143.34;5033717;28;20032;-81
2022/05/31 12:03:05;;;;;;;4.57;2.85;;;;;;;19.63;37.92;101145.00;5036190;28;20014;-81
2022/05/31 12:05:49;;;;;;;4.25;2.13;;;;;;;19.51;35.91;101149.06;5033632;28;20033;-80